Latest Weather Observations for Fowlers Gap

IDN60801

Issued at 4:35 pm EST Tuesday 2 September 2014 (issued every 30 minutes, with the page automatically refreshed every 10 minutes)

About weather observations | Map of weather stations | Latest weather observations for NSW | Other Formats
Station Details ID: 046128 Name: FOWLERS GAP AWS Lat: -31.09 Lon: 141.70 Height: 181.0 m
Data from the previous 72 hours. | See also: Recent months at Fowlers Gap
Date/Time
EST
Temp
°C
App
Temp
°C
Dew
Point
Rel
Hum
%
Delta-T
°C
Wind Press
QNH
hPa
Press
MSL
hPa
Rain
since 9 am
mm
Dir
 
Spd
km/h
Gust
km/h
Spd
kts
Gust
kts
02/04:30pm 16.0 9.5 2.8 41 6.0 S 26 32 14 17 1021.8 - 0.0
02/04:00pm 15.7 9.2 2.8 42 5.9 S 26 35 14 19 1021.6 1021.3 0.0
02/03:30pm 15.8 8.9 2.6 41 6.0 S 28 35 15 19 1021.5 - 0.0
02/03:00pm 15.8 9.0 3.3 43 5.7 S 28 39 15 21 1021.3 1021.0 0.0
02/02:30pm 15.0 8.2 2.9 44 5.5 S 28 39 15 21 1021.4 - 0.0
02/02:00pm 15.3 8.4 2.8 43 5.7 S 28 39 15 21 1021.4 1021.1 0.0
02/01:30pm 14.9 8.1 3.1 45 5.4 S 28 39 15 21 1021.7 - 0.0
02/01:04pm 15.3 8.1 2.8 43 5.7 S 30 48 16 26 1021.9 - 0.0
02/01:00pm 15.3 7.6 2.5 42 5.8 SW 32 46 17 25 1021.9 1021.6 0.0
02/12:30pm 15.0 7.3 2.5 43 5.6 S 32 43 17 23 1022.1 - 0.0
02/12:00pm 14.4 6.5 2.0 43 5.5 S 33 44 18 24 1022.4 1022.1 0.0
02/11:30am 13.8 6.2 2.7 47 5.0 SSW 32 48 17 26 1022.8 - 0.0
02/11:00am 12.7 4.9 2.6 50 4.4 S 33 43 18 23 1023.1 1022.8 0.0
02/10:30am 12.8 5.3 3.7 54 4.1 SSW 32 41 17 22 1022.9 - 0.0
02/10:00am 11.9 3.5 3.7 57 3.7 S 37 44 20 24 1022.8 1022.5 0.0
02/09:30am 11.3 4.9 5.0 65 2.9 SSW 28 37 15 20 1022.9 - 0.0
02/09:00am 9.7 4.1 5.3 74 2.0 SW 24 35 13 19 1023.0 1022.7 0.4
02/08:30am 8.8 3.2 5.4 79 1.5 SW 24 33 13 18 1022.8 - 0.4
02/08:00am 7.6 1.9 5.1 84 1.1 SW 24 32 13 17 1022.4 1022.1 0.4
02/07:30am 6.8 1.8 4.8 87 0.9 SW 20 28 11 15 1021.9 - 0.4
02/07:00am 6.3 1.5 4.6 89 0.7 SW 19 24 10 13 1021.5 1021.2 0.4
02/06:30am 6.3 2.3 4.8 90 0.7 SW 15 19 8 10 1021.0 - 0.4
02/06:00am 6.6 3.0 5.1 90 0.7 SW 13 20 7 11 1020.5 1020.3 0.4
02/05:30am 6.9 3.4 5.4 90 0.7 SW 13 19 7 10 1020.1 - 0.4
02/05:00am 7.4 2.8 5.5 88 0.9 WSW 19 22 10 12 1019.7 1019.4 0.4
02/04:30am 7.5 3.7 5.8 89 0.8 WSW 15 17 8 9 1019.4 - 0.2
02/04:00am 7.9 4.2 6.2 89 0.8 SW 15 20 8 11 1019.2 1018.9 0.2
02/03:30am 8.3 4.3 6.6 89 0.8 SW 17 22 9 12 1019.3 - 0.2
02/03:00am 9.0 5.8 7.0 87 0.9 SW 13 17 7 9 1019.1 1018.8 0.2
02/02:30am 9.5 5.6 7.3 86 1.0 SW 17 22 9 12 1019.2 - 0.2
02/02:00am 9.4 7.0 8.5 94 0.4 SW 11 13 6 7 1019.0 1018.7 0.2
02/01:30am 9.8 7.9 8.9 94 0.4 SW 9 11 5 6 1018.7 - 0.2
02/01:00am 10.2 8.4 9.4 95 0.4 SW 9 11 5 6 1018.7 1018.4 0.2
02/12:30am 9.9 8.0 9.1 95 0.4 SW 9 13 5 7 1018.5 - 0.2
02/12:00am 10.3 8.1 9.5 95 0.4 W 11 13 6 7 1018.4 1018.1 0.2
 
Date/Time
EST
Temp
°C
App
Temp
°C
Dew
Point
Rel
Hum
%
Delta-T
°C
Wind Press
QNH
hPa
Press
MSL
hPa
Rain
since 9 am
mm
Dir
 
Spd
km/h
Gust
km/h
Spd
kts
Gust
kts
01/11:30pm 10.6 8.9 9.7 94 0.5 WSW 9 11 5 6 1018.1 - 0.2
01/11:00pm 11.0 8.6 10.1 94 0.5 WSW 13 15 7 8 1018.0 1017.7 0.2
01/10:30pm 11.4 9.1 10.3 93 0.6 WSW 13 17 7 9 1017.8 - 0.2
01/10:00pm 12.1 10.3 10.7 91 0.7 WSW 11 15 6 8 1017.5 1017.2 0.2
01/09:30pm 12.3 9.7 10.7 90 0.8 SW 15 17 8 9 1017.3 - 0.2
01/09:00pm 12.6 9.0 10.7 88 1.0 SW 20 28 11 15 1016.9 1016.6 0.2
01/08:30pm 13.4 9.7 10.2 81 1.7 SW 20 30 11 16 1016.6 - 0.2
01/08:00pm 13.7 10.3 10.7 82 1.6 SW 19 24 10 13 1015.9 1015.6 0.2
01/07:30pm 13.8 10.9 11.1 84 1.4 WSW 17 20 9 11 1015.6 - 0.2
01/07:00pm 13.9 11.2 11.6 86 1.2 WSW 17 20 9 11 1015.2 1014.8 0.2
01/06:30pm 13.9 9.8 11.6 86 1.2 SW 24 32 13 17 1014.6 - 0.2
01/06:00pm 15.7 12.8 11.1 74 2.5 WSW 17 19 9 10 1014.2 1013.9 0.0
01/05:30pm 17.7 13.4 7.7 52 5.1 SSW 20 26 11 14 1013.2 - 0.0
01/05:00pm 18.5 13.3 7.3 48 5.7 SW 24 33 13 18 1013.7 1013.4 0.0
01/04:30pm 19.0 13.2 6.1 43 6.4 SW 26 37 14 20 1013.6 - 0.0
01/04:00pm 19.4 13.2 4.3 37 7.3 SW 26 35 14 19 1012.8 1012.5 0.0
01/03:30pm 20.1 12.5 3.8 34 7.8 SW 33 44 18 24 1012.5 - 0.0
01/03:00pm 21.2 13.0 -1.3 22 9.9 WSW 32 41 17 22 1012.4 1012.1 0.0
01/02:30pm 22.0 13.5 -2.0 20 10.5 WSW 33 43 18 23 1012.0 - 0.0
01/02:18pm 22.3 12.6 -2.4 19 10.7 WSW 39 44 21 24 1012.1 - 0.0
01/02:00pm 23.5 14.0 -3.7 16 11.6 W 37 50 20 27 1012.0 1011.7 0.0
01/01:30pm 23.9 15.2 -3.4 16 11.8 WNW 33 41 18 22 1012.2 - 0.0
01/01:00pm 24.6 16.0 -2.9 16 12.1 WNW 33 44 18 24 1012.6 1012.3 0.0
01/12:30pm 23.5 15.0 -2.9 17 11.5 NW 32 44 17 24 1012.9 - 0.0
01/12:00pm 23.4 15.3 -3.0 17 11.4 NW 30 46 16 25 1013.2 1012.9 0.0
01/11:30am 23.3 15.3 -2.3 18 11.2 NW 30 39 16 21 1013.5 - 0.0
01/11:00am 22.7 14.3 -2.8 18 11.0 NNW 32 44 17 24 1013.7 1013.4 0.0
01/10:30am 22.2 14.3 -1.8 20 10.5 NNW 30 43 16 23 1013.9 - 0.0
01/10:00am 21.4 13.8 -1.8 21 10.1 NNW 28 37 15 20 1014.1 1013.8 0.0
01/09:30am 20.4 12.9 -1.4 23 9.5 NNW 28 41 15 22 1014.1 - 0.0
01/09:00am 19.6 11.7 -1.5 24 9.1 NNW 30 41 16 22 1014.1 1014.1 0.0
01/08:30am 19.1 11.2 -1.9 24 8.9 NNW 30 43 16 23 1014.2 - 0.0
01/08:00am 17.3 10.9 -1.9 27 8.0 N 22 32 12 17 1013.9 1013.9 0.0
01/07:30am 15.4 9.6 -1.2 32 6.9 NNW 19 24 10 13 1014.2 - 0.0
01/07:00am 14.1 8.7 -1.5 34 6.4 NNW 17 20 9 11 1014.3 1014.3 0.0
01/06:30am 13.8 8.8 -1.4 35 6.2 NNW 15 17 8 9 1014.0 - 0.0
01/06:00am 12.9 7.9 -1.1 38 5.7 NW 15 17 8 9 1013.8 1013.8 0.0
01/05:30am 13.2 8.9 -1.5 36 6.0 NNW 11 15 6 8 1013.4 - 0.0
01/05:00am 14.5 9.4 -1.6 33 6.6 N 15 20 8 11 1013.1 1013.1 0.0
01/04:30am 12.4 8.6 -0.8 40 5.4 NNW 9 11 5 6 1013.1 - 0.0
01/04:00am 13.5 8.5 -1.3 36 6.0 N 15 17 8 9 1013.2 1013.2 0.0
01/03:30am 14.9 9.1 -1.6 32 6.8 N 19 20 10 11 1013.2 - 0.0
01/03:00am 14.6 8.9 -1.1 34 6.5 N 19 24 10 13 1013.4 1013.4 0.0
01/02:30am 14.2 8.5 -1.0 35 6.3 N 19 20 10 11 1013.4 - 0.0
01/02:00am 14.4 9.5 -0.8 35 6.3 N 15 19 8 10 1013.8 1013.8 0.0
01/01:30am 15.2 9.9 -0.5 34 6.6 N 17 20 9 11 1014.0 - 0.0
01/01:00am 15.5 10.2 -0.7 33 6.8 N 17 20 9 11 1014.2 1014.2 0.0
01/12:30am 15.6 10.3 -0.6 33 6.9 N 17 19 9 10 1014.5 - 0.0
01/12:00am 15.5 10.2 -0.3 34 6.7 N 17 20 9 11 1014.6 1014.6 0.0
 
Date/Time
EST
Temp
°C
App
Temp
°C
Dew
Point
Rel
Hum
%
Delta-T
°C
Wind Press
QNH
hPa
Press
MSL
hPa
Rain
since 9 am
mm
Dir
 
Spd
km/h
Gust
km/h
Spd
kts
Gust
kts
31/11:30pm 15.7 10.4 -0.5 33 6.9 N 17 19 9 10 1014.8 - 0.0
31/11:00pm 15.8 10.5 -0.4 33 6.9 N 17 17 9 9 1015.2 1015.2 0.0
31/10:30pm 16.0 11.5 -0.2 33 6.9 NNW 13 15 7 8 1015.4 - 0.0
31/10:00pm 15.5 11.1 0.1 35 6.6 NNW 13 15 7 8 1015.4 1015.4 0.0
31/09:30pm 14.6 11.0 0.5 38 6.1 NNW 9 13 5 7 1015.7 - 0.0
31/09:00pm 14.9 11.4 1.1 39 6.0 NNW 9 11 5 6 1015.7 1015.7 0.0
31/08:30pm 16.2 12.6 0.7 35 6.8 NNW 9 9 5 5 1015.8 - 0.0
31/08:00pm 16.6 13.1 1.5 36 6.7 NNW 9 9 5 5 1015.7 1015.7 0.0
31/07:30pm 18.1 13.7 0.3 30 7.9 N 13 13 7 7 1015.5 - 0.0
31/07:00pm 18.8 14.8 0.4 29 8.2 N 11 11 6 6 1015.4 1015.4 0.0
31/06:30pm 19.8 15.6 -0.8 25 9.0 N 11 13 6 7 1015.3 - 0.0
31/06:00pm 22.2 17.9 -1.8 20 10.5 NNW 11 15 6 8 1015.5 1015.5 0.0
31/05:30pm 23.6 18.5 -2.1 18 11.3 NNW 15 22 8 12 1015.3 - 0.0
31/05:00pm 24.2 19.1 -1.6 18 11.5 NNW 15 24 8 13 1015.1 1015.0 0.0
31/04:30pm 24.5 18.9 -2.9 16 12.0 NW 17 22 9 12 1015.2 - 0.0
31/04:00pm 24.7 19.6 -2.0 17 11.9 NNW 15 26 8 14 1015.2 1015.2 0.0
31/03:30pm 24.2 18.7 -2.4 17 11.7 NNW 17 26 9 14 1015.4 - 0.0
31/03:00pm 24.2 18.8 -1.6 18 11.5 N 17 28 9 15 1015.8 1015.8 0.0
31/02:30pm 24.4 19.4 -1.4 18 11.6 NNW 15 26 8 14 1016.3 - 0.0
31/02:00pm 24.1 18.8 -0.9 19 11.3 NNW 17 28 9 15 1016.8 1016.8 0.0
31/01:30pm 23.3 18.0 -0.9 20 10.9 NNW 17 28 9 15 1017.3 - 0.0
31/01:00pm 23.2 17.4 -1.7 19 11.0 NNW 19 24 10 13 1017.9 1017.9 0.0
31/12:30pm 23.0 17.7 -0.5 21 10.6 N 17 26 9 14 1018.3 - 0.0
31/12:00pm 22.9 17.3 0.1 22 10.4 N 19 24 10 13 1018.7 1018.7 0.0
31/11:30am 22.3 16.6 -0.4 22 10.2 N 19 32 10 17 1019.2 - 0.0
31/11:00am 22.2 16.7 0.7 24 9.9 N 19 30 10 16 1019.7 1019.7 0.0
31/10:30am 21.2 14.9 1.5 27 9.1 N 24 30 13 16 1020.1 - 0.0
31/10:00am 20.5 14.3 1.9 29 8.6 N 24 30 13 16 1020.2 1020.3 0.0
31/09:30am 19.3 17.5 3.5 35 7.5 ENE 2 7 1 4 1020.5 - 0.0
31/09:00am 15.4 14.2 4.5 48 5.1 CALM 0 0 0 0 1020.5 1020.6 0.0
31/08:30am 12.0 10.8 4.7 61 3.4 CALM 0 0 0 0 1020.6 - 0.0
31/08:00am 8.5 7.0 2.9 68 2.4 CALM 0 0 0 0 1020.3 1020.4 0.0
31/07:30am 6.6 5.1 3.0 78 1.5 CALM 0 0 0 0 1020.1 - 0.0
31/07:00am 5.6 4.0 2.4 80 1.3 CALM 0 0 0 0 1020.0 1020.1 0.0
31/06:30am 5.6 3.9 2.1 78 1.4 CALM 0 0 0 0 1019.7 - 0.0
31/06:00am 6.0 4.4 2.5 78 1.4 CALM 0 0 0 0 1019.5 1019.5 0.0
31/05:30am 6.3 4.0 2.6 77 1.5 W 4 9 2 5 1019.4 - 0.0
31/05:00am 6.4 4.9 2.9 78 1.5 CALM 0 0 0 0 1019.2 1019.2 0.0
31/04:30am 6.6 5.2 3.4 80 1.4 CALM 0 0 0 0 1019.1 - 0.0
31/04:00am 6.7 5.2 3.0 77 1.6 CALM 0 0 0 0 1019.1 1019.1 0.0
31/03:30am 6.9 5.4 2.8 75 1.7 CALM 0 0 0 0 1019.2 - 0.0
31/03:00am 7.2 5.7 2.9 74 1.8 CALM 0 0 0 0 1019.2 1019.2 0.0
31/02:30am 7.6 6.1 3.1 73 1.9 CALM 0 0 0 0 1019.5 - 0.0
31/02:00am 8.0 6.6 3.3 72 2.0 CALM 0 0 0 0 1019.8 1019.9 0.0
31/01:30am 8.5 7.1 3.4 70 2.2 CALM 0 0 0 0 1020.0 - 0.0
31/01:00am 8.7 6.5 3.3 69 2.3 NE 4 9 2 5 1020.1 1020.2 0.0
31/12:30am 9.8 7.2 3.3 64 2.8 WSW 6 9 3 5 1020.4 - 0.0
31/12:00am 10.5 7.7 3.3 61 3.2 W 7 9 4 5 1020.5 1020.6 0.0
 
Date/Time
EST
Temp
°C
App
Temp
°C
Dew
Point
Rel
Hum
%
Delta-T
°C
Wind Press
QNH
hPa
Press
MSL
hPa
Rain
since 9 am
mm
Dir
 
Spd
km/h
Gust
km/h
Spd
kts
Gust
kts
30/11:30pm 10.6 7.9 3.9 63 3.0 WSW 7 9 4 5 1020.6 - 0.0
30/11:00pm 10.7 8.6 4.0 63 3.0 WNW 4 7 2 4 1020.7 1020.8 0.0
30/10:30pm 11.3 9.9 3.6 59 3.4 CALM 0 0 0 0 1020.9 - 0.0
30/10:00pm 11.9 10.5 3.4 56 3.8 CALM 0 0 0 0 1021.1 1021.1 0.0
30/09:30pm 12.4 11.1 4.1 57 3.8 CALM 0 0 0 0 1021.2 - 0.0
30/09:00pm 13.1 11.7 3.7 53 4.3 CALM 0 0 0 0 1021.3 1021.3 0.0
30/08:30pm 14.1 12.5 2.7 46 5.1 CALM 0 0 0 0 1021.3 - 0.0
30/08:00pm 15.5 13.2 2.7 42 5.8 NNW 4 7 2 4 1021.3 1021.3 0.0
30/07:30pm 16.1 14.6 3.2 42 5.9 CALM 0 0 0 0 1021.2 - 0.0
30/07:00pm 17.6 15.9 2.0 35 7.1 CALM 0 6 0 3 1021.0 1021.0 0.0
30/06:30pm 19.8 16.5 -0.2 26 8.9 NE 7 9 4 5 1020.6 - 0.0
30/06:00pm 21.7 18.3 -0.3 23 9.9 ENE 7 9 4 5 1020.3 1020.4 0.0
30/05:30pm 22.7 19.2 -1.4 20 10.7 ENE 7 11 4 6 1020.2 - 0.0
30/05:00pm 23.7 20.3 -2.0 18 11.3 W 6 9 3 5 1020.2 1020.3 0.0

Other Formats:

Comma delimited format used in spreadsheet applications
http://www.bom.gov.au/fwo/IDN60801/IDN60801.94686.axf

JavaScript Object Notation format (JSON) in row-major order
http://www.bom.gov.au/fwo/IDN60801/IDN60801.94686.json